Time;durP1;ratioP1;P1;durP2;ratioP2;P2;SDS_P1;SDS_P2;PMS_P1;PMS_P2;Temp;Humidity;BMP_temperature;BMP_pressure;BME280_temperature;BME280_humidity;BME280_pressure;Samples;Min_cycle;Max_cycle;Signal;HPM_P1;HPM_P2
2023/04/17 00:00:14;;;;;;;;;;;;;;;8.40;87.15;101321.94;5034876;28;19924;-72
2023/04/17 00:03:17;;;;;;;;;;;;;;;8.38;87.28;101321.97;5033623;28;19945;-72
2023/04/17 00:06:20;;;;;;;;;;;;;;;8.36;87.33;101325.50;5033670;28;19986;-71
2023/04/17 00:09:24;;;;;;;;;;;;;;;8.35;87.73;101322.03;5034403;28;19928;-71
2023/04/17 00:12:27;;;;;;;;;;;;;;;8.35;88.06;101323.78;5034793;28;20376;-71
2023/04/17 00:15:30;;;;;;;;;;;;;;;8.34;88.22;101325.53;5034316;28;19928;-71
2023/04/17 00:18:33;;;;;;;;;;;;;;;8.40;87.92;101328.91;5034284;28;19987;-71
2023/04/17 00:21:36;;;;;;;;;;;;;;;8.39;87.79;101322.81;5034318;28;19971;-72
2023/04/17 00:24:39;;;;;;;;;;;;;;;8.44;87.93;101320.09;5034229;28;19924;-71
2023/04/17 00:27:42;;;;;;;;;;;;;;;8.44;87.98;101326.16;5034163;28;19939;-71
2023/04/17 00:30:45;;;;;;;;;;;;;;;8.41;87.99;101321.03;5034196;28;19928;-71
2023/04/17 00:33:48;;;;;;;;;;;;;;;8.41;88.46;101325.38;5034079;28;19924;-71
2023/04/17 00:36:51;;;;;;;;;;;;;;;8.43;88.27;101318.38;5045862;28;19924;-71
2023/04/17 00:39:54;;;;;;;;;;;;;;;8.45;88.33;101317.41;5041070;28;19927;-71
2023/04/17 00:43:01;;;;;;;;;;;;;;;8.43;88.38;101321.00;5054023;28;19924;-71
2023/04/17 00:46:04;;;;;;;;;;;;;;;8.45;88.40;101316.56;5054173;28;19923;-71
2023/04/17 00:49:07;;;;;;;;;;;;;;;8.42;88.64;101317.50;5053962;28;19940;-71
2023/04/17 00:52:12;;;;;;;;;;;;;;;8.45;88.33;101308.75;5041295;28;19923;-71
2023/04/17 00:55:16;;;;;;;;;;;;;;;8.45;88.46;101311.34;5041131;28;19974;-72
2023/04/17 00:58:19;;;;;;;;;;;;;;;8.47;88.27;101309.56;5053467;28;20384;-72
2023/04/17 01:01:22;;;;;;;;;;;;;;;8.46;88.36;101302.66;5053769;28;19924;-71
2023/04/17 01:04:25;;;;;;;;;;;;;;;8.46;88.60;101308.72;5053851;28;19923;-71
2023/04/17 01:07:28;;;;;;;;;;;;;;;8.46;88.90;101306.09;5040340;28;20019;-71
2023/04/17 01:10:32;;;;;;;;;;;;;;;8.49;88.55;101310.38;5041104;28;19928;-71
2023/04/17 01:13:53;;;;;;;;;;;;;;;8.48;88.60;101313.88;5041276;28;20434;-72
2023/04/17 01:16:58;;;;;;;;;;;;;;;8.49;88.74;101311.22;5041103;28;20026;-72
2023/04/17 01:20:04;;;;;;;;;;;;;;;8.48;88.67;101309.50;5053240;28;19977;-72
2023/04/17 01:23:07;;;;;;;;;;;;;;;8.47;88.74;101310.41;5052381;28;20426;-71
2023/04/17 01:26:20;;;;;;;;;;;;;;;8.48;88.71;101312.09;5053137;28;19927;-72
2023/04/17 01:29:23;;;;;;;;;;;;;;;8.48;88.69;101301.69;5040605;28;19970;-72
2023/04/17 01:32:27;;;;;;;;;;;;;;;8.49;89.01;101303.41;5040635;28;19971;-71
2023/04/17 01:35:30;;;;;;;;;;;;;;;8.50;88.79;101299.91;5040569;28;19931;-71
2023/04/17 01:38:33;;;;;;;;;;;;;;;8.51;88.66;101311.16;5040265;28;19924;-71
2023/04/17 01:41:36;;;;;;;;;;;;;;;8.52;88.61;101308.53;5040488;28;19923;-71
2023/04/17 01:44:39;;;;;;;;;;;;;;;8.52;88.91;101307.66;5040509;28;20014;-72
2023/04/17 01:47:42;;;;;;;;;;;;;;;8.48;89.06;101306.91;5040323;28;19924;-71
2023/04/17 01:50:45;;;;;;;;;;;;;;;8.47;88.86;101314.78;5052692;28;19971;-72
2023/04/17 01:53:48;;;;;;;;;;;;;;;8.48;88.63;101306.91;5052190;28;20466;-73
2023/04/17 01:56:52;;;;;;;;;;;;;;;8.47;88.89;101310.41;5040172;28;19971;-72
2023/04/17 01:59:54;;;;;;;;;;;;;;;8.45;89.08;101312.19;5052072;28;19923;-72
2023/04/17 02:02:57;;;;;;;;;;;;;;;8.45;89.23;101312.19;5052660;28;19923;-72
2023/04/17 02:06:00;;;;;;;;;;;;;;;8.49;89.03;101311.22;5052528;28;20296;-72
2023/04/17 02:09:03;;;;;;;;;;;;;;;8.50;89.16;101294.69;5051560;28;20365;-72
2023/04/17 02:12:06;;;;;;;;;;;;;;;8.49;89.16;101303.41;5052589;28;20289;-71
2023/04/17 02:15:09;;;;;;;;;;;;;;;8.45;89.45;101301.78;5039686;28;20027;-71
2023/04/17 02:18:12;;;;;;;;;;;;;;;8.46;89.58;101298.28;5039986;28;20055;-71
2023/04/17 02:21:15;;;;;;;;;;;;;;;8.47;89.51;101306.97;5052519;28;19962;-71
2023/04/17 02:24:19;;;;;;;;;;;;;;;8.50;89.54;101296.44;5052162;28;19970;-72
2023/04/17 02:27:22;;;;;;;;;;;;;;;8.50;89.54;101299.03;5039930;28;19923;-71
2023/04/17 02:30:25;;;;;;;;;;;;;;;8.51;89.55;101296.38;5052082;28;19924;-71
2023/04/17 02:33:31;;;;;;;;;;;;;;;8.51;89.62;101296.38;5039814;28;19924;-71
2023/04/17 02:36:35;;;;;;;;;;;;;;;8.50;89.70;101299.91;5039978;28;19927;-71
2023/04/17 02:39:40;;;;;;;;;;;;;;;8.48;89.79;101299.06;5051220;28;20012;-71
2023/04/17 02:42:43;;;;;;;;;;;;;;;8.51;89.78;101296.38;5039656;28;19978;-71
2023/04/17 02:45:46;;;;;;;;;;;;;;;8.52;89.66;101292.88;5039918;28;20407;-71
2023/04/17 02:48:50;;;;;;;;;;;;;;;8.50;90.05;101289.47;5039196;28;20380;-71
2023/04/17 02:51:53;;;;;;;;;;;;;;;8.51;89.74;101290.31;5052213;28;19970;-72
2023/04/17 02:54:56;;;;;;;;;;;;;;;8.51;89.92;101295.53;5051803;28;20412;-72
2023/04/17 02:57:59;;;;;;;;;;;;;;;8.48;90.01;101296.47;5039693;28;19924;-72
2023/04/17 03:01:03;;;;;;;;;;;;;;;8.46;89.96;101298.28;5052253;28;19928;-72
2023/04/17 03:04:10;;;;;;;;;;;;;;;8.47;89.89;101310.41;5042441;28;19924;-72
2023/04/17 03:07:13;;;;;;;;;;;;;;;8.45;90.00;101303.53;5053877;28;20006;-72
2023/04/17 03:10:16;;;;;;;;;;;;;;;8.48;90.13;101308.66;5042687;28;19970;-72
2023/04/17 03:13:20;;;;;;;;;;;;;;;8.50;90.00;101310.31;5051815;28;19927;-72
2023/04/17 03:16:24;;;;;;;;;;;;;;;8.50;89.92;101305.09;5049843;28;20062;-72
2023/04/17 03:19:28;;;;;;;;;;;;;;;8.51;90.13;101306.81;5062818;28;19974;-72
2023/04/17 03:22:31;;;;;;;;;;;;;;;8.52;89.88;101302.44;5063683;28;19969;-72
2023/04/17 03:25:34;;;;;;;;;;;;;;;8.55;90.05;101305.81;5052253;28;19931;-72
2023/04/17 03:28:38;;;;;;;;;;;;;;;8.55;89.92;101313.66;5051041;28;20079;-72
2023/04/17 03:31:41;;;;;;;;;;;;;;;8.54;89.67;101308.47;5060847;28;19969;-72
2023/04/17 03:34:44;;;;;;;;;;;;;;;8.49;89.93;101311.22;5051932;28;19983;-72
2023/04/17 03:37:47;;;;;;;;;;;;;;;8.49;89.91;101310.38;5051629;28;19924;-72
2023/04/17 03:40:50;;;;;;;;;;;;;;;8.47;90.28;101315.63;5062964;28;20300;-72
2023/04/17 03:43:53;;;;;;;;;;;;;;;8.45;90.60;101314.81;5050522;28;19943;-72
2023/04/17 03:46:56;;;;;;;;;;;;;;;8.46;90.39;101313.94;5052410;28;20065;-72
2023/04/17 03:49:59;;;;;;;;;;;;;;;8.48;90.25;101311.25;5052336;28;19927;-72
2023/04/17 03:53:05;;;;;;;;;;;;;;;8.47;90.55;101318.22;5051681;28;19974;-72
2023/04/17 03:56:09;;;;;;;;;;;;;;;8.45;90.34;101311.34;5051123;28;19927;-72
2023/04/17 03:59:15;;;;;;;;;;;;;;;8.45;90.50;101312.19;5050111;28;19931;-72
2023/04/17 04:02:21;;;;;;;;;;;;;;;8.43;90.49;101313.19;5052010;28;19943;-72
2023/04/17 04:05:25;;;;;;;;;;;;;;;8.44;90.51;101315.72;5048810;28;20276;-72
2023/04/17 04:08:30;;;;;;;;;;;;;;;8.41;90.47;101315.81;5050970;28;19970;-77
2023/04/17 04:11:34;;;;;;;;;;;;;;;8.40;90.83;101319.34;5033476;28;20380;-73
2023/04/17 04:14:41;;;;;;;;;;;;;;;8.40;90.84;101310.66;5034612;28;19928;-77
2023/04/17 04:17:44;;;;;;;;;;;;;;;8.40;90.64;101314.13;5032957;28;19928;-75
2023/04/17 04:20:48;;;;;;;;;;;;;;;8.39;91.03;101317.59;5031783;28;19932;-78
2023/04/17 04:23:57;;;;;;;;;;;;;;;8.39;90.81;101317.59;5032795;28;19928;-72
2023/04/17 04:27:03;;;;;;;;;;;;;;;8.42;90.78;101320.13;5032627;28;20463;-72
2023/04/17 04:30:09;;;;;;;;;;;;;;;8.44;90.54;101315.72;5032224;28;20297;-71
2023/04/17 04:33:13;;;;;;;;;;;;;;;8.46;90.58;101320.91;5032808;28;20352;-75
2023/04/17 04:36:19;;;;;;;;;;;;;;;8.49;90.68;101323.41;5032952;28;19975;-71
2023/04/17 04:39:25;;;;;;;;;;;;;;;8.46;90.83;101326.97;5032834;28;20293;-72
2023/04/17 04:42:29;;;;;;;;;;;;;;;8.43;91.09;101323.59;5032923;28;19924;-72
2023/04/17 04:45:45;;;;;;;;;;;;;;;8.45;91.07;101330.44;5033107;28;19928;-72
2023/04/17 04:48:49;;;;;;;;;;;;;;;8.44;91.06;101326.16;5032818;28;20062;-72
2023/04/17 04:51:52;;;;;;;;;;;;;;;8.42;90.79;101327.94;5033832;28;20424;-72
2023/04/17 04:54:56;;;;;;;;;;;;;;;8.45;90.96;101333.06;5032712;28;19967;-74
2023/04/17 04:58:33;;;;;;;;;;;;;;;8.46;90.92;101332.19;5034061;28;19980;-73
2023/04/17 05:01:38;;;;;;;;;;;;;;;8.46;91.01;101331.31;5033083;28;19939;-73
2023/04/17 05:04:44;;;;;;;;;;;;;;;8.46;90.98;101324.34;5032743;28;20293;-73
2023/04/17 05:07:54;;;;;;;;;;;;;;;8.48;91.17;101332.97;5032754;28;19924;-73
2023/04/17 05:11:06;;;;;;;;;;;;;;;8.42;91.30;101325.31;5031562;28;20029;-73
2023/04/17 05:14:09;;;;;;;;;;;;;;;8.44;90.95;101346.16;5032526;28;19939;-73
2023/04/17 05:17:14;;;;;;;;;;;;;;;8.46;90.90;101340.00;5032272;28;19975;-73
2023/04/17 05:20:18;;;;;;;;;;;;;;;8.46;90.51;101337.38;5031350;28;19923;-73
2023/04/17 05:23:31;;;;;;;;;;;;;;;8.47;90.77;101343.44;5032460;28;19923;-74
2023/04/17 05:26:35;;;;;;;;;;;;;;;8.42;91.08;101348.78;5032107;28;19970;-74
2023/04/17 05:29:39;;;;;;;;;;;;;;;8.42;91.47;101337.50;5032506;28;19924;-73
2023/04/17 05:32:42;;;;;;;;;;;;;;;8.43;91.60;101342.69;5033274;28;20404;-73
2023/04/17 05:36:00;;;;;;;;;;;;;;;8.48;91.28;101345.16;5022875;28;19943;-74
2023/04/17 05:39:04;;;;;;;;;;;;;;;8.51;91.36;101348.50;5032213;28;19924;-73
2023/04/17 05:42:07;;;;;;;;;;;;;;;8.57;91.43;101348.31;5033002;28;20339;-74
2023/04/17 05:45:14;;;;;;;;;;;;;;;8.60;91.08;101348.22;5032921;28;19928;-74
2023/04/17 05:48:17;;;;;;;;;;;;;;;8.61;91.20;101352.56;5032502;28;19927;-74
2023/04/17 05:51:26;;;;;;;;;;;;;;;8.69;91.15;101352.31;5031499;28;19986;-74
2023/04/17 05:54:29;;;;;;;;;;;;;;;8.76;90.76;101355.56;5031815;28;20332;-74
2023/04/17 05:57:34;;;;;;;;;;;;;;;8.77;90.26;101362.50;5031770;28;19928;-73
2023/04/17 06:00:46;;;;;;;;;;;;;;;8.72;90.53;101361.78;5032583;28;20086;-75
2023/04/17 06:03:59;;;;;;;;;;;;;;;8.72;90.41;101357.44;5032594;28;20388;-74
2023/04/17 06:07:04;;;;;;;;;;;;;;;8.79;89.92;101364.16;5032055;28;19971;-75
2023/04/17 06:10:09;;;;;;;;;;;;;;;8.82;89.24;101371.03;5032015;28;19924;-76
2023/04/17 06:13:13;;;;;;;;;;;;;;;8.82;89.46;101365.81;5032351;28;19963;-76
2023/04/17 06:16:20;;;;;;;;;;;;;;;8.90;89.47;101363.81;5032166;28;20308;-77
2023/04/17 06:19:24;;;;;;;;;;;;;;;8.99;89.31;101366.13;5032175;28;19928;-78
2023/04/17 06:22:28;;;;;;;;;;;;;;;9.04;89.35;101359.00;5032995;28;19978;-78
2023/04/17 06:25:31;;;;;;;;;;;;;;;9.10;89.29;101367.56;5032046;28;19964;-78
2023/04/17 06:28:34;;;;;;;;;;;;;;;9.15;89.03;101376.06;5033206;28;20297;-78
2023/04/17 06:31:39;;;;;;;;;;;;;;;9.19;88.82;101370.72;5032921;28;19970;-77
2023/04/17 06:34:42;;;;;;;;;;;;;;;9.16;88.95;101372.56;5031965;28;19967;-77
2023/04/17 06:37:46;;;;;;;;;;;;;;;9.23;88.47;101371.47;5034099;28;19928;-76
2023/04/17 06:40:49;;;;;;;;;;;;;;;9.25;87.89;101374.84;5035876;28;19955;-77
2023/04/17 06:43:53;;;;;;;;;;;;;;;9.27;87.80;101373.06;5035805;28;19923;-76
2023/04/17 06:46:57;;;;;;;;;;;;;;;9.28;87.54;101377.34;5036050;28;20473;-77
2023/04/17 06:50:00;;;;;;;;;;;;;;;9.27;87.67;101376.50;5035643;28;20004;-77
2023/04/17 06:53:04;;;;;;;;;;;;;;;9.34;88.17;101379.78;5036769;28;20292;-77
2023/04/17 06:56:08;;;;;;;;;;;;;;;9.41;88.30;101377.81;5036142;28;19980;-77
2023/04/17 06:59:16;;;;;;;;;;;;;;;9.44;87.91;101381.16;5036355;28;20403;-77
2023/04/17 07:02:19;;;;;;;;;;;;;;;9.51;88.28;101385.28;5036262;28;20408;-77
2023/04/17 07:05:22;;;;;;;;;;;;;;;9.50;87.53;101383.56;5036221;28;20289;-78
2023/04/17 07:08:26;;;;;;;;;;;;;;;9.64;87.37;101390.09;5036549;28;19971;-76
2023/04/17 07:11:30;;;;;;;;;;;;;;;9.67;87.18;101392.59;5036032;28;19924;-77
2023/04/17 07:14:34;;;;;;;;;;;;;;;9.77;87.25;101388.75;5034554;28;20301;-78
2023/04/17 07:17:37;;;;;;;;;;;;;;;9.86;86.46;101393.66;5036013;28;19924;-79
2023/04/17 07:20:40;;;;;;;;;;;;;;;9.93;85.89;101395.16;5036034;28;19928;-77
2023/04/17 07:23:46;;;;;;;;;;;;;;;10.08;85.24;101392.88;5035808;28;19971;-78
2023/04/17 07:26:49;;;;;;;;;;;;;;;10.24;85.65;101394.00;5035773;28;19962;-78
2023/04/17 07:29:54;;;;;;;;;;;;;;;10.33;85.37;101396.31;5035792;28;19963;-79
2023/04/17 07:32:56;;;;;;;;;;;;;;;10.42;84.86;101395.13;5035918;28;19932;-78
2023/04/17 07:36:00;;;;;;;;;;;;;;;10.51;84.35;101396.56;5035641;28;19980;-77
2023/04/17 07:39:05;;;;;;;;;;;;;;;10.59;83.03;101397.97;5034753;28;20396;-78
2023/04/17 07:42:09;;;;;;;;;;;;;;;10.68;82.35;101396.75;5035470;28;20389;-78
2023/04/17 07:45:12;;;;;;;;;;;;;;;10.71;81.61;101391.41;5035539;28;19963;-76
2023/04/17 07:48:21;;;;;;;;;;;;;;;10.83;81.64;101396.16;5035469;28;19924;-77
2023/04/17 07:51:24;;;;;;;;;;;;;;;10.96;80.58;101398.28;5035726;28;19940;-78
2023/04/17 07:54:29;;;;;;;;;;;;;;;10.98;78.08;101389.47;5035049;28;19975;-78
2023/04/17 07:57:32;;;;;;;;;;;;;;;10.93;75.71;101392.25;5035178;28;19931;-76
2023/04/17 08:00:40;;;;;;;;;;;;;;;11.02;76.21;101398.03;5035164;28;19970;-77
2023/04/17 08:03:43;;;;;;;;;;;;;;;11.14;76.60;101397.56;5035392;28;20333;-76
2023/04/17 08:06:46;;;;;;;;;;;;;;;11.18;75.48;101402.59;5035243;28;19923;-77
2023/04/17 08:09:50;;;;;;;;;;;;;;;11.27;75.13;101400.53;5035001;28;20016;-78
2023/04/17 08:12:53;;;;;;;;;;;;;;;11.28;74.87;101405.69;5034861;28;19981;-77
2023/04/17 08:15:56;;;;;;;;;;;;;;;11.29;74.20;101407.38;5034861;28;19928;-75
2023/04/17 08:18:59;;;;;;;;;;;;;;;11.35;74.82;101407.13;5034649;28;19977;-78
2023/04/17 08:22:03;;;;;;;;;;;;;;;11.33;74.09;101416.81;5034408;28;20010;-79
2023/04/17 08:25:08;;;;;;;;;;;;;;;11.27;74.01;101411.84;5034412;28;19967;-79
2023/04/17 08:28:10;;;;;;;;;;;;;;;11.31;74.08;101413.41;5034315;28;19975;-82
2023/04/17 08:31:14;;;;;;;;;;;;;;;11.39;73.64;101411.34;5034555;28;19924;-78
2023/04/17 08:34:17;;;;;;;;;;;;;;;11.47;73.80;101418.88;5034497;28;19924;-72
2023/04/17 08:37:20;;;;;;;;;;;;;;;11.49;72.69;101416.19;5033094;28;19932;-78
2023/04/17 08:40:24;;;;;;;;;;;;;;;11.46;72.50;101418.94;5033412;28;20396;-79
2023/04/17 08:43:28;;;;;;;;;;;;;;;11.37;73.19;101417.56;5033207;28;19924;-80
2023/04/17 08:46:33;;;;;;;;;;;;;;;11.42;72.93;101418.19;5033285;28;20371;-79
2023/04/17 08:49:36;;;;;;;;;;;;;;;11.50;73.39;101417.88;5032738;28;19971;-80
2023/04/17 08:52:40;;;;;;;;;;;;;;;11.68;73.15;101422.38;5033698;28;19970;-80
2023/04/17 08:55:44;;;;;;;;;;;;;;;11.83;72.72;101413.81;5033104;28;19968;-80
2023/04/17 08:58:47;;;;;;;;;;;;;;;12.01;71.96;101413.97;5033509;28;19924;-80
2023/04/17 09:02:03;;;;;;;;;;;;;;;12.08;71.88;101418.03;5033395;28;19967;-81
2023/04/17 09:05:17;;;;;;;;;;;;;;;12.06;70.22;101423.34;5032594;28;19924;-79
2023/04/17 09:08:22;;;;;;;;;;;;;;;12.00;70.76;101420.16;5033903;28;20483;-80
2023/04/17 09:11:26;;;;;;;;;;;;;;;11.97;70.62;101423.75;5031736;28;19987;-79
2023/04/17 09:14:30;;;;;;;;;;;;;;;12.02;71.43;101427.00;5032556;28;19985;-79
2023/04/17 09:17:36;;;;;;;;;;;;;;;12.12;70.42;101426.59;5032241;28;19924;-80
2023/04/17 09:20:50;;;;;;;;;;;;;;;11.99;70.71;101428.91;5033413;28;19972;-80
2023/04/17 09:23:55;;;;;;;;;;;;;;;11.88;70.73;101423.31;5032864;28;19924;-79
2023/04/17 09:27:17;;;;;;;;;;;;;;;11.81;70.52;101434.00;5033325;28;20012;-79
2023/04/17 09:30:23;;;;;;;;;;;;;;;11.82;70.15;101430.47;5033561;28;20017;-79
2023/04/17 09:33:27;;;;;;;;;;;;;;;11.91;69.59;101429.25;5033187;28;19959;-79
2023/04/17 09:36:32;;;;;;;;;;;;;;;12.01;68.82;101427.94;5033074;28;19967;-79
2023/04/17 09:39:36;;;;;;;;;;;;;;;12.08;67.82;101431.13;5033116;28;20317;-80
2023/04/17 09:42:52;;;;;;;;;;;;;;;12.16;67.16;101423.78;5032999;28;19924;-80
2023/04/17 09:45:56;;;;;;;;;;;;;;;12.28;66.14;101420.63;5032951;28;20344;-80
2023/04/17 09:49:00;;;;;;;;;;;;;;;12.46;65.83;101425.94;5032982;28;19925;-80
2023/04/17 09:52:03;;;;;;;;;;;;;;;12.64;64.02;101412.00;5032874;28;19928;-80
2023/04/17 09:55:09;;;;;;;;;;;;;;;12.79;61.78;101413.91;5032692;28;19928;-80
2023/04/17 09:58:12;;;;;;;;;;;;;;;12.87;61.10;101402.19;5030373;28;20292;-80
2023/04/17 10:01:16;;;;;;;;;;;;;;;13.00;60.58;101405.91;5032370;28;19975;-80
2023/04/17 10:04:27;;;;;;;;;;;;;;;13.10;59.20;101398.44;5033067;28;20383;-80
2023/04/17 10:07:31;;;;;;;;;;;;;;;13.10;59.61;101412.41;5032811;28;19925;-79
2023/04/17 10:10:35;;;;;;;;;;;;;;;13.11;59.09;101416.72;5032794;28;19924;-79
2023/04/17 10:13:39;;;;;;;;;;;;;;;13.13;58.38;101412.25;5036838;28;20340;-79
2023/04/17 10:16:43;;;;;;;;;;;;;;;13.15;58.82;101413.03;5035818;28;19928;-79
2023/04/17 10:19:46;;;;;;;;;;;;;;;13.11;59.08;101419.34;5035695;28;20028;-73
2023/04/17 10:22:54;;;;;;;;;;;;;;;13.13;57.62;101412.25;5037359;28;19963;-73
2023/04/17 10:26:16;;;;;;;;;;;;;;;13.20;57.07;101411.03;5036459;28;19924;-73
2023/04/17 10:29:39;;;;;;;;;;;;;;;13.28;57.72;101410.69;5036470;28;20020;-74
2023/04/17 10:32:45;;;;;;;;;;;;;;;13.33;57.00;101413.94;5036572;28;19940;-73
2023/04/17 10:35:49;;;;;;;;;;;;;;;13.31;55.35;101407.06;5036300;28;19927;-73
2023/04/17 10:38:52;;;;;;;;;;;;;;;13.27;54.87;101398.47;5036486;28;19927;-73
2023/04/17 10:42:02;;;;;;;;;;;;;;;13.42;54.92;101418.72;5036224;28;19924;-73
2023/04/17 10:45:18;;;;;;;;;;;;;;;13.62;54.95;101416.88;5035406;28;20301;-73
2023/04/17 10:48:29;;;;;;;;;;;;;;;13.68;54.80;101420.03;5035712;28;20412;-73
2023/04/17 10:51:32;;;;;;;;;;;;;;;13.79;55.01;101411.63;5035659;28;20019;-73
2023/04/17 10:54:55;;;;;;;;;;;;;;;13.81;55.27;101406.28;5035871;28;19974;-73
2023/04/17 10:58:00;;;;;;;;;;;;;;;13.73;54.35;101402.25;5035811;28;19932;-73
2023/04/17 11:01:17;;;;;;;;;;;;;;;13.73;53.85;101399.63;5035952;28;19983;-73
2023/04/17 11:04:25;;;;;;;;;;;;;;;13.70;53.22;101402.41;5035086;28;19940;-73
2023/04/17 11:07:29;;;;;;;;;;;;;;;13.71;54.39;101398.84;5035316;28;20021;-73
2023/04/17 11:10:34;;;;;;;;;;;;;;;13.77;53.95;101392.44;5034198;28;20285;-73
2023/04/17 11:13:40;;;;;;;;;;;;;;;13.97;54.67;101399.28;5035064;28;20436;-73
2023/04/17 11:16:44;;;;;;;;;;;;;;;13.90;53.56;101388.25;5034655;28;19971;-74
2023/04/17 11:19:48;;;;;;;;;;;;;;;13.98;53.65;101384.38;5035552;28;19928;-74
2023/04/17 11:22:51;;;;;;;;;;;;;;;14.04;52.96;101395.41;5034756;28;20435;-74
2023/04/17 11:25:55;;;;;;;;;;;;;;;14.01;52.86;101390.31;5035370;28;20344;-74
2023/04/17 11:28:59;;;;;;;;;;;;;;;14.00;51.55;101378.09;5035378;28;20093;-74
2023/04/17 11:32:02;;;;;;;;;;;;;;;13.92;51.90;101390.81;5033342;28;20477;-73
2023/04/17 11:35:06;;;;;;;;;;;;;;;13.81;52.16;101393.13;5034217;28;20288;-73
2023/04/17 11:38:13;;;;;;;;;;;;;;;13.69;52.42;101387.59;5035231;28;19944;-73
2023/04/17 11:45:12;;;;;;;;;;;;;;;13.51;54.09;101388.53;5034451;28;19970;-73
2023/04/17 11:48:19;;;;;;;;;;;;;;;13.67;53.71;101392.06;5035007;28;19963;-73
2023/04/17 11:51:22;;;;;;;;;;;;;;;13.85;53.84;101389.44;5035347;28;20438;-75
2023/04/17 11:54:43;;;;;;;;;;;;;;;13.94;53.94;101378.41;5034911;28;19924;-75
2023/04/17 11:57:49;;;;;;;;;;;;;;;13.94;52.64;101386.28;5033936;28;20352;-72
2023/04/17 12:01:02;;;;;;;;;;;;;;;13.94;51.35;101395.06;5034830;28;20438;-75
2023/04/17 12:04:17;;;;;;;;;;;;;;;13.88;50.52;101381.34;5034671;28;20320;-72
2023/04/17 12:07:23;;;;;;;;;;;;;;;14.04;51.34;101390.16;5034502;28;19939;-72
2023/04/17 12:10:36;;;;;;;;;;;;;;;14.22;51.90;101385.69;5034356;28;20300;-73
2023/04/17 12:13:39;;;;;;;;;;;;;;;14.22;51.15;101388.31;5033306;28;19928;-72
2023/04/17 12:16:42;;;;;;;;;;;;;;;14.37;50.22;101376.97;5046402;28;19974;-73
2023/04/17 12:19:50;;;;;;;;;;;;;;;14.64;48.84;101374.66;5053239;28;19940;-73
2023/04/17 12:22:54;;;;;;;;;;;;;;;14.70;47.98;101375.22;5066399;28;19927;-72
2023/04/17 12:25:57;;;;;;;;;;;;;;;14.51;47.69;101367.50;5062035;28;19985;-72
2023/04/17 12:29:00;;;;;;;;;;;;;;;14.52;48.82;101374.47;5074058;28;19923;-72
2023/04/17 12:32:04;;;;;;;;;;;;;;;14.77;49.21;101373.94;5074238;28;19923;-75
2023/04/17 12:35:32;;;;;;;;;;;;;;;14.92;48.33;101377.50;5064238;28;19927;-75
2023/04/17 12:38:36;;;;;;;;;;;;;;;15.07;48.05;101385.38;5074202;28;20046;-75
2023/04/17 12:41:39;;;;;;;;;;;;;;;14.85;48.43;101377.84;5073765;28;20330;-73
2023/04/17 12:44:42;;;;;;;;;;;;;;;14.74;47.95;101384.63;5073788;28;19970;-73
2023/04/17 12:47:45;;;;;;;;;;;;;;;14.41;47.23;101375.00;5074810;28;20058;-74
2023/04/17 12:50:48;;;;;;;;;;;;;;;14.43;47.87;101381.06;5073700;28;19924;-73
2023/04/17 12:53:51;;;;;;;;;;;;;;;14.36;47.59;101379.69;5073702;28;19924;-74
2023/04/17 12:56:57;;;;;;;;;;;;;;;14.46;47.53;101370.34;5073323;28;19928;-77
2023/04/17 13:00:25;;;;;;;;;;;;;;;14.53;46.60;101363.00;5073389;28;19927;-75
2023/04/17 13:03:28;;;;;;;;;;;;;;;14.47;46.93;101365.94;5072155;28;19924;-72
2023/04/17 13:06:31;;;;;;;;;;;;;;;14.62;47.23;101363.34;5071990;28;20014;-72
2023/04/17 13:09:36;;;;;;;;;;;;;;;14.68;47.75;101363.91;5073817;28;20499;-76
2023/04/17 13:12:41;;;;;;;;;;;;;;;15.34;46.78;101359.19;5073420;28;20344;-77
2023/04/17 13:15:47;;;;;;;;;;;;;;;15.91;46.54;101360.25;5073253;28;20414;-75
2023/04/17 13:18:49;;;;;;;;;;;;;;;16.35;45.38;101348.72;5073519;28;20430;-75
2023/04/17 13:21:52;;;;;;;;;;;;;;;16.23;44.68;101347.69;5073362;28;20417;-75
2023/04/17 13:24:55;;;;;;;;;;;;;;;16.08;44.64;101343.38;5073408;28;20011;-75
2023/04/17 13:27:59;;;;;;;;;;;;;;;15.92;44.66;101344.34;5072569;28;19924;-74
2023/04/17 13:31:02;;;;;;;;;;;;;;;15.97;45.26;101347.53;5072529;28;19984;-75
2023/04/17 13:34:06;;;;;;;;;;;;;;;16.68;44.74;101333.34;5060890;28;20011;-74
2023/04/17 13:37:09;;;;;;;;;;;;;;;16.73;41.64;101336.53;5061166;28;19931;-74
2023/04/17 13:40:12;;;;;;;;;;;;;;;17.06;42.40;101331.81;5072953;28;19924;-75
2023/04/17 13:43:16;;;;;;;;;;;;;;;16.82;42.20;101329.84;5071809;28;20383;-76
2023/04/17 13:46:19;;;;;;;;;;;;;;;16.18;42.63;101331.31;5071254;28;20354;-75
2023/04/17 13:49:23;;;;;;;;;;;;;;;15.73;43.93;101330.56;5073093;28;19985;-75
2023/04/17 13:52:45;;;;;;;;;;;;;;;17.46;41.92;101322.03;5072371;28;19962;-76
2023/04/17 13:55:49;;;;;;;;;;;;;;;17.48;40.52;101308.69;5070640;28;19928;-75
2023/04/17 13:58:56;;;;;;;;;;;;;;;17.33;40.07;101314.09;5072023;28;20136;-75
2023/04/17 14:02:02;;;;;;;;;;;;;;;18.18;40.20;101317.00;5071150;28;19924;-75
2023/04/17 14:05:05;;;;;;;;;;;;;;;20.03;38.78;101310.13;5071375;28;19923;-75
2023/04/17 14:08:09;;;;;;;;;;;;;;;18.71;37.59;101303.47;5071694;28;19924;-76
2023/04/17 14:11:12;;;;;;;;;;;;;;;17.57;39.68;101323.94;5072256;28;19924;-76
2023/04/17 14:14:15;;;;;;;;;;;;;;;16.74;41.42;101324.16;5071551;28;19923;-76
2023/04/17 14:17:18;;;;;;;;;;;;;;;16.02;42.77;101324.34;5072005;28;19974;-77
2023/04/17 14:20:22;;;;;;;;;;;;;;;15.77;44.44;101324.19;5071954;28;19923;-76
2023/04/17 14:23:24;;;;;;;;;;;;;;;15.54;45.16;101328.19;5072135;28;19923;-76
2023/04/17 14:26:28;;;;;;;;;;;;;;;15.39;45.81;101323.81;5072260;28;19924;-76
2023/04/17 14:29:31;;;;;;;;;;;;;;;15.30;46.47;101326.06;5072096;28;19935;-78
2023/04/17 14:32:34;;;;;;;;;;;;;;;15.27;46.87;101313.06;5072232;28;19923;-77
2023/04/17 14:35:38;;;;;;;;;;;;;;;15.22;46.95;101319.53;5072256;28;19931;-76
2023/04/17 14:38:43;;;;;;;;;;;;;;;15.09;46.87;101309.75;5072405;28;20033;-77
2023/04/17 14:41:45;;;;;;;;;;;;;;;14.81;46.22;101312.28;5072181;28;19922;-77
2023/04/17 14:44:49;;;;;;;;;;;;;;;14.75;46.40;101308.22;5071937;28;19922;-77
2023/04/17 14:47:52;;;;;;;;;;;;;;;15.64;47.29;101302.13;5072605;28;20042;-76
2023/04/17 14:50:56;;;;;;;;;;;;;;;17.57;41.98;101294.84;5072333;28;19982;-77
2023/04/17 14:53:59;;;;;;;;;;;;;;;17.11;42.42;101290.06;5072154;28;20403;-77
2023/04/17 14:57:02;;;;;;;;;;;;;;;17.42;42.53;101292.31;5071818;28;19973;-77
2023/04/17 15:00:06;;;;;;;;;;;;;;;17.99;39.09;101284.88;5075349;28;20327;-76
2023/04/17 15:03:10;;;;;;;;;;;;;;;18.49;37.80;101280.38;5075850;28;20037;-76
2023/04/17 15:06:17;;;;;;;;;;;;;;;18.18;38.13;101285.22;5075923;28;19923;-75
2023/04/17 15:09:20;;;;;;;;;;;;;;;17.31;39.11;101286.91;5075905;28;19927;-75
2023/04/17 15:12:24;;;;;;;;;;;;;;;16.62;40.90;101285.34;5075770;28;19923;-75
2023/04/17 15:15:27;;;;;;;;;;;;;;;16.32;40.76;101286.41;5073717;28;19928;-75
2023/04/17 15:18:31;;;;;;;;;;;;;;;16.07;40.26;101296.84;5075367;28;20028;-76
2023/04/17 15:21:34;;;;;;;;;;;;;;;15.71;40.02;101299.03;5075930;28;19923;-75
2023/04/17 15:24:38;;;;;;;;;;;;;;;15.43;39.54;101284.00;5065981;28;20458;-75
2023/04/17 15:27:41;;;;;;;;;;;;;;;15.31;40.15;101292.66;5062514;28;19943;-75
2023/04/17 15:30:44;;;;;;;;;;;;;;;15.18;41.02;101283.78;5063447;28;20280;-75
2023/04/17 15:33:51;;;;;;;;;;;;;;;15.01;41.04;101293.53;5064848;28;19939;-75
2023/04/17 15:36:56;;;;;;;;;;;;;;;14.79;39.80;101290.44;5065730;28;19928;-75
2023/04/17 15:40:02;;;;;;;;;;;;;;;14.79;40.09;101288.66;5063570;28;19985;-75
2023/04/17 15:43:05;;;;;;;;;;;;;;;14.76;41.06;101285.38;5064246;28;19924;-75
2023/04/17 15:46:08;;;;;;;;;;;;;;;14.90;41.93;101285.44;5063679;28;20047;-75
2023/04/17 15:49:12;;;;;;;;;;;;;;;15.03;40.92;101286.41;5065293;28;20399;-76
2023/04/17 15:52:16;;;;;;;;;;;;;;;15.01;41.07;101290.91;5061144;28;19923;-75
2023/04/17 15:55:20;;;;;;;;;;;;;;;14.76;41.31;101290.63;5061427;28;20011;-75
2023/04/17 15:58:23;;;;;;;;;;;;;;;14.71;41.97;101295.28;5062910;28;19962;-76